ADDS METAR Data INFO
IDs: Format: Raw Decoded Include TAF

Data at: 0935 UTC 25 Jun 2018

KJVW 250915Z AUTO VRB03KT 6SM BR CLR 25/24 A2996 RMK AO2
KJVW 250855Z AUTO 21006KT 7SM CLR 25/24 A2996 RMK AO2
KJVW 250835Z AUTO 18007KT 7SM CLR 26/24 A2994 RMK AO2
KJVW 250815Z AUTO 17007G13KT 8SM CLR 26/24 A2995 RMK AO2
KJVW 250755Z AUTO 17007KT 9SM CLR 26/24 A2995 RMK AO2
KJVW 250735Z AUTO 16006KT 9SM CLR 26/24 A2997 RMK AO2
KJVW 250715Z AUTO 17006KT 7SM CLR 26/24 A2997 RMK AO2 LTG DSNT NE
KJVW 250655Z AUTO 00000KT 7SM CLR 26/25 A2999 RMK AO2 LTG DSNT NE
KJVW 250635Z AUTO 18005KT 8SM CLR 25/25 A2998 RMK AO2 LTG DSNT NE
KJVW 250615Z AUTO 00000KT 4SM BR CLR 25/25 A3000 RMK AO2 LTG DSNT NE
KJVW 250555Z AUTO 00000KT 5SM BR CLR 25/25 A3001 RMK AO2 LTG DSNT NE
KJVW 250535Z AUTO 00000KT 5SM BR CLR 25/25 A3002 RMK AO2 LTG DSNT NE
KJVW 250515Z AUTO 00000KT 4SM BR CLR 26/25 A3001 RMK AO2 LTG DSNT NE
KJVW 250455Z AUTO 00000KT 6SM BR CLR 26/26 A3001 RMK AO2
KJVW 250435Z AUTO 00000KT 6SM BR FEW046 FEW055 26/26 A3001 RMK AO2
KJVW 250415Z AUTO 00000KT 7SM BKN045 BKN050 26/26 A3001 RMK AO2 LTG DSNT NE
KJVW 250355Z AUTO 00000KT 7SM BKN045 BKN050 26/26 A3001 RMK AO2 LTG DSNT NE
KJVW 250335Z AUTO 00000KT 7SM BKN045 BKN055 BKN065 26/26 A3001 RMK AO2
KJVW 250315Z AUTO 00000KT 7SM CLR 26/26 A3000 RMK AO2
KJVW 250255Z AUTO 00000KT 7SM CLR 26/26 A2999 RMK AO2
KJVW 250235Z AUTO 00000KT 8SM CLR 27/26 A2998 RMK AO2
KJVW 250215Z AUTO 00000KT 7SM FEW050 FEW070 FEW080 27/26 A2998 RMK AO2
KJVW 250155Z AUTO 00000KT 6SM BR FEW050 FEW060 FEW070 27/26 A2997 RMK AO2
KJVW 250135Z AUTO 00000KT 7SM 27/26 A2996 RMK AO2
KJVW 250115Z AUTO 00000KT 7SM 28/26 A2996 RMK AO2
KJVW 250055Z AUTO 00000KT 6SM HZ 30/25 A2995 RMK AO2
KJVW 250035Z AUTO 18003KT 7SM 31/24 A2995 RMK AO2 LTG DSNT SW
KJVW 250015Z AUTO 17005KT 6SM HZ 32/24 A2994 RMK AO2
KJVW 242355Z AUTO 17006KT 7SM 33/24 A2994 RMK AO2
KJVW 242335Z AUTO 18005KT 6SM HZ 33/24 A2994 RMK AO2 LTG DSNT SE-SW
KJVW 242315Z AUTO 00000KT 7SM 34/24 A2994 RMK AO2
KJVW 242255Z AUTO 19004KT 8SM 34/23 A2994 RMK AO2
KJVW 242235Z AUTO VRB04KT 6SM HZ 34/23 A2994 RMK AO2
KJVW 242215Z AUTO 19007KT 6SM HZ 34/24 A2995 RMK AO2
KJVW 242155Z AUTO 22007G13KT 6SM HZ 34/23 A2995 RMK AO2
KJVW 242135Z AUTO VRB04G10KT 7SM 34/24 A2995 RMK AO2
KJVW 242115Z AUTO 19004KT 7SM 33/24 A2996 RMK AO2
KJVW 242055Z AUTO 19005KT 6SM HZ 33/24 A2996 RMK AO2
KJVW 242035Z AUTO 21003KT 8SM 33/24 A2997 RMK AO2
KJVW 242015Z AUTO VRB05KT 6SM HZ 33/24 A2997 RMK AO2
KJVW 241955Z AUTO 00000KT 6SM HZ 33/25 A2998 RMK AO2
KJVW 241935Z AUTO 00000KT 7SM 32/24 A2998 RMK AO2
KJVW 241915Z AUTO VRB04KT 7SM 33/24 A2999 RMK AO2
KJVW 241855Z AUTO VRB05KT 7SM 33/24 A2999 RMK AO2
KJVW 241835Z AUTO 29003KT 7SM 32/24 A3000 RMK AO2
KJVW 241815Z AUTO VRB04KT 6SM HZ 31/25 A3001 RMK AO2
KJVW 241755Z AUTO 29004KT 8SM 32/24 A3002 RMK AO2
KJVW 241735Z AUTO 29008KT 7SM 31/25 A3002 RMK AO2
KJVW 241715Z AUTO VRB05G12KT 6SM HZ FEW033 FEW039 32/24 A3002 RMK AO2
KJVW 241655Z AUTO VRB06G16KT 6SM HZ CLR 32/25 A3002 RMK AO2
KJVW 241635Z AUTO 20010KT 6SM HZ CLR 31/24 A3001 RMK AO2
KJVW 241615Z AUTO 20005G11KT 7SM FEW025 SCT031 SCT042 31/25 A3001 RMK AO2
KJVW 241555Z AUTO 21007G12KT 8SM SCT025 SCT031 BKN042 30/25 A3002 RMK AO2
KJVW 241535Z AUTO 21007KT 6SM HZ FEW021 SCT029 BKN050 29/25 A3002 RMK AO2
KJVW 241515Z AUTO 27008KT 6SM HZ SCT021 BKN028 BKN042 29/25 A3002 RMK AO2
KJVW 241455Z AUTO VRB05G11KT 6SM HZ FEW020 SCT028 SCT035 29/25 A3002 RMK AO2
KJVW 241435Z AUTO 23005G11KT 6SM HZ SCT016 BKN021 BKN028 28/25 A3001 RMK AO2
KJVW 241415Z AUTO 22004G13KT 6SM HZ BKN014 BKN020 28/25 A3001 RMK AO2
KJVW 241355Z AUTO 22007KT 5SM HZ BKN011 BKN016 28/25 A3000 RMK AO2
KJVW 241335Z AUTO 22010KT 4SM BR BKN009 BKN012 27/25 A3000 RMK AO2
KJVW 241315Z AUTO VRB05G10KT 3SM BR BKN008 BKN012 27/25 A3000 RMK AO2
KJVW 241255Z AUTO 19007KT 6SM BR SCT007 27/25 A2999 RMK AO2
KJVW 241235Z AUTO 16006KT 5SM BR CLR 26/25 A2997 RMK AO2
KJVW 241215Z AUTO 18004KT 5SM BR FEW015 FEW020 25/24 A2998 RMK AO2
KJVW 241155Z AUTO 00000KT 3SM BR SCT015 SCT020 24/24 A2997 RMK AO2
KJVW 241135Z AUTO 12004KT 2 1/2SM BR CLR 23/23 A2996 RMK AO2
KJVW 241115Z AUTO 00000KT 2SM BR CLR 23/23 A2996 RMK AO2
KJVW 241055Z AUTO 00000KT 2SM BR CLR 23/23 A2996 RMK AO2
KJVW 241035Z AUTO 00000KT 5SM BR CLR 23/23 A2996 RMK AO2
KJVW 241015Z AUTO 00000KT 6SM BR FEW018 24/23 A2996 RMK AO2
KJVW 240955Z AUTO 00000KT 8SM CLR 24/24 A2996 RMK AO2
KJVW 240935Z AUTO 19003KT 8SM CLR 25/24 A2996 RMK AO2
KJVW 240915Z AUTO 20004KT 7SM CLR 25/24 A2996 RMK AO2
KJVW 240855Z AUTO 22003KT 8SM CLR 25/24 A2995 RMK AO2
KJVW 240835Z AUTO 21004KT 9SM CLR 25/24 A2994 RMK AO2
KJVW 240815Z AUTO 9SM CLR 25/24 A2994 RMK AO2
KJVW 240755Z AUTO 00000KT 7SM CLR 25/24 A2994 RMK AO2
KJVW 240735Z AUTO 20004KT 8SM CLR 25/24 A2994 RMK AO2
KJVW 240715Z AUTO 20004KT 7SM CLR 26/24 A2994 RMK AO2
KJVW 240655Z AUTO 18003KT 7SM CLR 26/24 A2993 RMK AO2
KJVW 240635Z AUTO 20004KT 7SM CLR 26/24 A2992 RMK AO2
KJVW 240615Z AUTO 20004KT 8SM CLR 26/24 A2992 RMK AO2
KJVW 240555Z AUTO 00000KT 9SM CLR 26/24 A2991 RMK AO2
KJVW 240535Z AUTO 19004KT 7SM CLR 27/24 A2991 RMK AO2
KJVW 240515Z AUTO 19005KT 9SM CLR 27/24 A2991 RMK AO2
KJVW 240455Z AUTO 19004KT 7SM CLR 27/24 A2991 RMK AO2
KJVW 240435Z AUTO 19005KT 8SM SCT048 27/24 A2991 RMK AO2
KJVW 240415Z AUTO 17004KT 8SM BKN048 27/24 A2991 RMK AO2
KJVW 240355Z AUTO 00000KT 7SM BKN047 26/25 A2991 RMK AO2
KJVW 240335Z AUTO 00000KT 8SM BKN047 25/25 A2990 RMK AO2
KJVW 240315Z AUTO 00000KT 6SM BR CLR 25/25 A2989 RMK AO2
KJVW 240255Z AUTO 00000KT 7SM CLR 25/25 A2989 RMK AO2
KJVW 240235Z AUTO 00000KT 7SM CLR 26/25 A2988 RMK AO2
KJVW 240215Z AUTO 00000KT 7SM CLR 26/25 A2987 RMK AO2
KJVW 240155Z AUTO 00000KT 8SM CLR 26/25 A2987 RMK AO2
KJVW 240135Z AUTO 00000KT 7SM 26/25 A2986 RMK AO2
KJVW 240115Z AUTO 00000KT 5SM BR 27/26 A2986 RMK AO2
KJVW 240055Z AUTO 00000KT 6SM BR 28/26 A2986 RMK AO2
KJVW 240035Z AUTO 00000KT 6SM HZ 29/26 A2985 RMK AO2
KJVW 240015Z AUTO 00000KT 6SM HZ 32/24 A2985 RMK AO2
KJVW 232355Z AUTO 00000KT 6SM HZ 33/23 A2985 RMK AO2
KJVW 232335Z AUTO 22005KT 7SM 33/23 A2984 RMK AO2
KJVW 232315Z AUTO VRB05G10KT 6SM HZ 33/23 A2984 RMK AO2
KJVW 232255Z AUTO 22007KT 6SM HZ 33/23 A2984 RMK AO2
KJVW 232235Z AUTO 22007KT 6SM HZ 33/23 A2985 RMK AO2
KJVW 232215Z AUTO 23004KT 6SM HZ 34/23 A2985 RMK AO2
KJVW 232155Z AUTO 24008KT 7SM 33/22 A2986 RMK AO2